createdAt,value
2023-05-15T00:01:53.702Z,96628.25
2023-05-15T00:04:20.268Z,96621.06
2023-05-15T00:06:46.735Z,96624.25
2023-05-15T00:09:13.150Z,96615.56
2023-05-15T00:11:39.687Z,96617.06
2023-05-15T00:14:06.243Z,96607.94
2023-05-15T00:16:32.677Z,96619.94
2023-05-15T00:18:59.265Z,96618.81
2023-05-15T00:21:25.772Z,96619.31
2023-05-15T00:23:54.055Z,96613.06
2023-05-15T00:26:20.814Z,96616.53
2023-05-15T00:28:47.226Z,96621.63
2023-05-15T00:31:14.756Z,96615.84
2023-05-15T00:33:41.376Z,96616.41
2023-05-15T00:36:08.638Z,96611.81
2023-05-15T00:38:35.319Z,96612.56
2023-05-15T00:41:02.405Z,96610.34
2023-05-15T00:43:29.391Z,96608.47
2023-05-15T00:45:56.826Z,96612.47
2023-05-15T00:48:25.362Z,96612.34
2023-05-15T00:50:52.220Z,96604.59
2023-05-15T00:53:18.859Z,96607.00
2023-05-15T00:55:50.096Z,96598.88
2023-05-15T00:58:18.585Z,96604.72
2023-05-15T01:00:46.413Z,96599.56
2023-05-15T01:03:13.498Z,96594.97
2023-05-15T01:05:40.257Z,96595.03
2023-05-15T01:08:12.338Z,96590.25
2023-05-15T01:10:40.132Z,96582.25
2023-05-15T01:13:07.223Z,96588.00
2023-05-15T01:15:34.120Z,96580.66
2023-05-15T01:18:00.769Z,96579.56
2023-05-15T01:20:27.786Z,96581.63
2023-05-15T01:23:16.103Z,96578.47
2023-05-15T01:26:24.429Z,96593.16
2023-05-15T01:29:07.271Z,96590.78
2023-05-15T01:31:35.193Z,96585.25
2023-05-15T01:34:06.484Z,96585.88
2023-05-15T01:36:39.291Z,96586.72
2023-05-15T01:39:07.051Z,96584.31
2023-05-15T01:41:46.589Z,96586.44
2023-05-15T01:44:45.451Z,96586.97
2023-05-15T01:47:14.546Z,96588.66
2023-05-15T01:49:44.891Z,96594.19
2023-05-15T01:52:26.539Z,96590.53
2023-05-15T01:54:55.304Z,96588.47
2023-05-15T01:57:23.481Z,96598.22
2023-05-15T01:59:51.545Z,96596.94
2023-05-15T02:02:19.130Z,96594.34
2023-05-15T02:04:45.902Z,96597.75
2023-05-15T02:07:13.246Z,96595.03
2023-05-15T02:09:41.218Z,96597.13
2023-05-15T02:12:09.171Z,96601.91
2023-05-15T02:14:37.159Z,96610.69
2023-05-15T02:17:03.562Z,96604.31
2023-05-15T02:19:29.988Z,96605.41
2023-05-15T02:21:56.352Z,96598.06
2023-05-15T02:24:22.722Z,96602.88
2023-05-15T02:27:22.590Z,96597.41
2023-05-15T02:30:18.171Z,96595.44
2023-05-15T02:33:12.945Z,96591.59
2023-05-15T02:35:54.037Z,96601.72
2023-05-15T02:38:26.234Z,96595.47
2023-05-15T02:40:55.515Z,96598.66
2023-05-15T02:43:22.372Z,96595.59
2023-05-15T02:45:48.904Z,96589.81
2023-05-15T02:48:17.066Z,96586.13
2023-05-15T02:50:44.065Z,96579.03
2023-05-15T02:53:10.657Z,96585.09
2023-05-15T02:55:38.001Z,96592.00
2023-05-15T02:58:04.868Z,96578.84
2023-05-15T03:00:31.278Z,96588.88
2023-05-15T03:02:57.755Z,96585.59
2023-05-15T03:05:24.495Z,96585.16
2023-05-15T03:07:51.067Z,96585.81
2023-05-15T03:10:17.534Z,96585.72
2023-05-15T03:12:43.936Z,96584.47
2023-05-15T03:15:10.468Z,96588.53
2023-05-15T03:17:36.887Z,96584.28
2023-05-15T03:20:04.773Z,96590.56
2023-05-15T03:22:31.239Z,96589.38
2023-05-15T03:24:57.877Z,96591.03
2023-05-15T03:27:24.302Z,96591.59
2023-05-15T03:29:51.101Z,96591.69
2023-05-15T03:32:17.904Z,96589.91
2023-05-15T03:34:44.459Z,96591.25
2023-05-15T03:37:10.890Z,96596.03
2023-05-15T03:39:37.301Z,96594.97
2023-05-15T03:42:03.934Z,96591.31
2023-05-15T03:44:30.380Z,96587.69
2023-05-15T03:46:56.939Z,96585.94
2023-05-15T03:49:23.700Z,96595.75
2023-05-15T03:51:50.176Z,96596.84
2023-05-15T03:54:16.736Z,96597.41
2023-05-15T03:56:43.189Z,96593.16
2023-05-15T03:59:09.897Z,96591.00
2023-05-15T04:01:44.230Z,96592.00
2023-05-15T04:04:22.010Z,96589.84
2023-05-15T04:06:48.463Z,96589.34
2023-05-15T04:09:14.949Z,96602.03
2023-05-15T04:11:41.404Z,96591.53
2023-05-15T04:14:07.889Z,96600.13
2023-05-15T04:16:34.326Z,96595.97
2023-05-15T04:19:01.048Z,96589.59
2023-05-15T04:21:27.530Z,96598.63
2023-05-15T04:23:54.179Z,96600.47
2023-05-15T04:26:20.759Z,96603.91
2023-05-15T04:29:00.027Z,96607.34
2023-05-15T04:31:31.669Z,96608.88
2023-05-15T04:33:58.679Z,96603.81
2023-05-15T04:36:25.489Z,96601.13
2023-05-15T04:38:52.095Z,96600.91
2023-05-15T04:41:18.687Z,96601.72
2023-05-15T04:43:45.916Z,96601.75
2023-05-15T04:46:12.514Z,96607.13
2023-05-15T04:48:38.930Z,96605.03
2023-05-15T04:51:05.434Z,96601.38
2023-05-15T04:53:31.824Z,96601.97
2023-05-15T04:55:58.466Z,96607.81
2023-05-15T04:58:24.932Z,96603.63
2023-05-15T05:00:51.377Z,96611.09
2023-05-15T05:03:17.875Z,96605.63
2023-05-15T05:05:44.592Z,96604.88
2023-05-15T05:08:11.092Z,96613.38
2023-05-15T05:10:37.763Z,96611.31
2023-05-15T05:13:04.256Z,96617.69
2023-05-15T05:15:30.656Z,96617.78
2023-05-15T05:17:57.077Z,96616.25
2023-05-15T05:20:23.493Z,96614.19
2023-05-15T05:22:49.939Z,96614.75
2023-05-15T05:25:16.373Z,96613.19
2023-05-15T05:27:43.067Z,96621.09
2023-05-15T05:30:10.131Z,96618.50
2023-05-15T05:32:36.671Z,96616.41
2023-05-15T05:35:03.998Z,96616.72
2023-05-15T05:37:30.652Z,96613.28
2023-05-15T05:39:57.084Z,96610.66
2023-05-15T05:42:23.498Z,96612.22
2023-05-15T05:44:49.952Z,96622.31
2023-05-15T05:47:16.572Z,96614.34
2023-05-15T05:49:43.544Z,96621.25
2023-05-15T05:52:10.084Z,96621.25
2023-05-15T05:54:37.071Z,96629.97
2023-05-15T05:57:03.701Z,96627.09
2023-05-15T05:59:30.608Z,96629.72
2023-05-15T06:01:57.365Z,96633.44
2023-05-15T06:04:24.041Z,96633.41
2023-05-15T06:06:50.735Z,96634.72
2023-05-15T06:09:18.048Z,96628.78
2023-05-15T06:11:45.415Z,96631.66
2023-05-15T06:14:12.020Z,96636.69
2023-05-15T06:16:38.586Z,96633.84
2023-05-15T06:19:05.085Z,96640.78
2023-05-15T06:21:31.543Z,96639.72
2023-05-15T06:23:58.310Z,96634.16
2023-05-15T06:26:25.582Z,96635.38
2023-05-15T06:28:52.020Z,96640.63
2023-05-15T06:31:18.623Z,96635.56
2023-05-15T06:33:45.340Z,96637.06
2023-05-15T06:36:12.073Z,96639.91
2023-05-15T06:38:38.714Z,96639.91
2023-05-15T06:41:05.569Z,96643.56
2023-05-15T06:43:32.044Z,96647.25
2023-05-15T06:45:59.210Z,96644.19
2023-05-15T06:48:25.772Z,96644.56
2023-05-15T06:50:52.537Z,96643.38
2023-05-15T06:53:21.064Z,96634.81
2023-05-15T06:55:48.565Z,96639.50
2023-05-15T06:58:17.889Z,96642.16
2023-05-15T07:00:44.410Z,96634.84
2023-05-15T07:03:10.961Z,96635.47
2023-05-15T07:05:37.356Z,96629.13
2023-05-15T07:08:05.749Z,96635.66
2023-05-15T07:10:32.497Z,96639.09
2023-05-15T07:12:59.235Z,96631.19
2023-05-15T07:15:25.798Z,96643.06
2023-05-15T07:17:52.401Z,96639.16
2023-05-15T07:20:19.088Z,96630.59
2023-05-15T07:22:55.690Z,96638.69
2023-05-15T07:25:24.444Z,96641.16
2023-05-15T07:27:51.694Z,96640.84
2023-05-15T07:30:18.638Z,96641.66
2023-05-15T07:32:45.179Z,96640.94
2023-05-15T07:35:11.979Z,96640.22
2023-05-15T07:37:38.886Z,96641.81
2023-05-15T07:40:05.906Z,96630.06
2023-05-15T07:42:32.226Z,96643.66
2023-05-15T07:44:58.785Z,96638.06
2023-05-15T07:47:25.570Z,96636.50
2023-05-15T07:49:52.078Z,96641.56
2023-05-15T07:52:19.022Z,96639.91
2023-05-15T07:54:45.442Z,96635.31
2023-05-15T07:57:12.981Z,96634.78
2023-05-15T07:59:39.842Z,96634.28
2023-05-15T08:02:07.079Z,96632.25
2023-05-15T08:04:33.690Z,96630.28
2023-05-15T08:07:00.421Z,96638.09
2023-05-15T08:09:26.882Z,96636.94
2023-05-15T08:11:56.496Z,96630.34
2023-05-15T08:14:23.193Z,96630.09
2023-05-15T08:16:50.320Z,96628.28
2023-05-15T08:19:16.991Z,96629.72
2023-05-15T08:21:43.557Z,96625.03
2023-05-15T08:24:10.031Z,96623.13
2023-05-15T08:26:36.492Z,96630.13
2023-05-15T08:29:03.537Z,96629.34
2023-05-15T08:31:30.198Z,96630.41
2023-05-15T08:33:56.705Z,96624.72
2023-05-15T08:36:23.358Z,96621.09
2023-05-15T08:38:49.948Z,96613.84
2023-05-15T08:41:40.652Z,96615.16
2023-05-15T08:44:09.496Z,96620.13
2023-05-15T08:46:36.654Z,96616.25
2023-05-15T08:49:11.696Z,96613.06
2023-05-15T08:51:39.282Z,96607.97
2023-05-15T08:54:06.382Z,96609.34
2023-05-15T08:56:32.995Z,96605.41
2023-05-15T08:58:59.836Z,96606.88
2023-05-15T09:01:28.141Z,96597.00
2023-05-15T09:03:54.639Z,96588.03
2023-05-15T09:06:22.542Z,96591.78
2023-05-15T09:08:50.326Z,96593.78
2023-05-15T09:11:17.074Z,96587.59
2023-05-15T09:13:43.465Z,96595.72
2023-05-15T09:16:09.994Z,96585.34
2023-05-15T09:18:38.793Z,96585.94
2023-05-15T09:21:27.446Z,96573.13
2023-05-15T09:23:55.566Z,96572.72
2023-05-15T09:26:22.128Z,96578.38
2023-05-15T09:28:49.372Z,96577.41
2023-05-15T09:31:20.383Z,96573.66
2023-05-15T09:33:47.138Z,96577.75
2023-05-15T09:36:21.694Z,96581.31
2023-05-15T09:38:49.719Z,96574.88
2023-05-15T09:41:24.914Z,96573.41
2023-05-15T09:43:51.422Z,96569.88
2023-05-15T09:46:18.055Z,96567.59
2023-05-15T09:48:44.758Z,96555.84
2023-05-15T09:51:17.154Z,96554.75
2023-05-15T09:53:49.248Z,96557.41
2023-05-15T09:56:16.702Z,96566.06
2023-05-15T09:59:01.706Z,96570.13
2023-05-15T10:01:28.583Z,96570.38
2023-05-15T10:04:03.478Z,96563.34
2023-05-15T10:06:37.641Z,96561.97
2023-05-15T10:09:06.216Z,96557.88
2023-05-15T10:11:39.240Z,96567.94
2023-05-15T10:14:08.440Z,96567.59
2023-05-15T10:16:37.064Z,96564.22
2023-05-15T10:19:05.465Z,96558.00
2023-05-15T10:21:40.141Z,96558.91
2023-05-15T10:24:07.679Z,96565.09
2023-05-15T10:26:39.460Z,96566.16
2023-05-15T10:29:08.809Z,96558.25
2023-05-15T10:31:38.816Z,96562.78
2023-05-15T10:34:06.718Z,96560.75
2023-05-15T10:36:34.714Z,96560.84
2023-05-15T10:39:03.669Z,96552.13
2023-05-15T10:41:31.335Z,96560.78
2023-05-15T10:43:59.914Z,96554.88
2023-05-15T10:46:27.928Z,96561.06
2023-05-15T10:48:54.726Z,96552.97
2023-05-15T10:51:27.565Z,96543.72
2023-05-15T10:53:55.385Z,96543.78
2023-05-15T10:56:26.784Z,96535.94
2023-05-15T10:58:54.685Z,96531.66
2023-05-15T11:01:32.316Z,96539.13
2023-05-15T11:04:10.602Z,96539.31
2023-05-15T11:06:39.228Z,96535.06
2023-05-15T11:09:26.581Z,96534.78
2023-05-15T11:11:57.064Z,96537.09
2023-05-15T11:14:25.556Z,96536.84
2023-05-15T11:16:55.217Z,96533.34
2023-05-15T11:19:35.074Z,96535.94
2023-05-15T11:22:08.887Z,96527.88
2023-05-15T11:25:06.871Z,96522.91
2023-05-15T11:27:39.742Z,96510.94
2023-05-15T11:30:07.288Z,96512.47
2023-05-15T11:33:21.236Z,96518.19
2023-05-15T11:35:48.589Z,96517.63
2023-05-15T11:38:24.948Z,96515.56
2023-05-15T11:40:55.893Z,96518.94
2023-05-15T11:43:37.368Z,96510.91
2023-05-15T11:46:07.759Z,96517.03
2023-05-15T11:48:39.860Z,96522.78
2023-05-15T11:51:18.686Z,96526.16
2023-05-15T11:53:45.535Z,96525.97
2023-05-15T11:56:19.312Z,96525.63
2023-05-15T11:58:49.599Z,96536.31
2023-05-15T12:01:16.381Z,96527.97
2023-05-15T12:03:42.970Z,96521.41
2023-05-15T12:06:10.788Z,96522.38
2023-05-15T12:08:38.613Z,96520.09
2023-05-15T12:11:05.948Z,96519.59
2023-05-15T12:13:33.301Z,96517.88
2023-05-15T12:16:01.869Z,96516.75
2023-05-15T12:18:28.519Z,96511.44
2023-05-15T12:20:55.527Z,96510.38
2023-05-15T12:23:24.265Z,96510.78
2023-05-15T12:25:57.626Z,96518.72
2023-05-15T12:28:24.661Z,96505.78
2023-05-15T12:30:51.499Z,96511.97
2023-05-15T12:33:18.648Z,96504.75
2023-05-15T12:35:49.980Z,96509.00
2023-05-15T12:38:16.721Z,96494.50
2023-05-15T12:40:44.147Z,96504.84
2023-05-15T12:43:11.103Z,96508.25
2023-05-15T12:45:41.701Z,96511.25
2023-05-15T12:48:13.436Z,96502.50
2023-05-15T12:50:40.157Z,96489.72
2023-05-15T12:53:06.796Z,96501.06
2023-05-15T12:55:35.305Z,96497.31
2023-05-15T12:58:09.167Z,96493.34
2023-05-15T13:00:37.331Z,96492.41
2023-05-15T13:03:05.147Z,96492.53
2023-05-15T13:05:33.067Z,96482.97
2023-05-15T13:08:00.450Z,96481.69
2023-05-15T13:10:27.258Z,96482.63
2023-05-15T13:12:55.903Z,96477.13
2023-05-15T13:15:26.747Z,96474.84
2023-05-15T13:17:56.635Z,96471.09
2023-05-15T13:20:24.328Z,96473.66
2023-05-15T13:22:51.642Z,96463.41
2023-05-15T13:25:19.103Z,96469.72
2023-05-15T13:27:47.118Z,96462.88
2023-05-15T13:30:15.215Z,96471.41
2023-05-15T13:32:41.678Z,96471.41
2023-05-15T13:35:08.921Z,96473.06
2023-05-15T13:37:37.814Z,96469.06
2023-05-15T13:40:09.799Z,96474.22
2023-05-15T13:42:40.689Z,96475.38
2023-05-15T13:45:11.964Z,96488.16
2023-05-15T13:47:39.538Z,96481.94
2023-05-15T13:50:10.796Z,96477.59
2023-05-15T13:52:37.958Z,96473.63
2023-05-15T13:55:04.882Z,96475.78
2023-05-15T13:57:32.150Z,96480.19
2023-05-15T13:59:59.109Z,96471.81
2023-05-15T14:02:29.282Z,96471.06
2023-05-15T14:04:55.895Z,96470.63
2023-05-15T14:07:23.664Z,96454.13
2023-05-15T14:09:51.011Z,96454.63
2023-05-15T14:12:17.734Z,96464.56
2023-05-15T14:14:47.158Z,96470.84
2023-05-15T14:17:14.961Z,96482.91
2023-05-15T14:19:41.514Z,96481.09
2023-05-15T14:22:08.326Z,96483.63
2023-05-15T14:24:34.902Z,96487.59
2023-05-15T14:27:01.706Z,96485.38
2023-05-15T14:29:28.115Z,96489.41
2023-05-15T14:31:54.608Z,96484.31
2023-05-15T14:34:22.780Z,96484.94
2023-05-15T14:36:49.940Z,96489.72
2023-05-15T14:39:16.958Z,96492.47
2023-05-15T14:41:44.801Z,96489.22
2023-05-15T14:44:11.355Z,96493.03
2023-05-15T14:46:38.173Z,96488.13
2023-05-15T14:49:05.345Z,96500.16
2023-05-15T14:51:32.281Z,96496.97
2023-05-15T14:53:58.902Z,96502.13
2023-05-15T14:56:25.872Z,96500.06
2023-05-15T14:58:53.679Z,96504.16
2023-05-15T15:01:20.761Z,96507.91
2023-05-15T15:03:48.036Z,96511.59
2023-05-15T15:06:14.629Z,96517.88
2023-05-15T15:08:41.216Z,96522.03
2023-05-15T15:11:07.868Z,96528.09
2023-05-15T15:13:34.434Z,96518.75
2023-05-15T15:16:00.938Z,96519.38
2023-05-15T15:18:27.401Z,96522.84
2023-05-15T15:20:53.806Z,96527.56
2023-05-15T15:23:20.511Z,96517.16
2023-05-15T15:25:46.975Z,96506.78
2023-05-15T15:28:13.426Z,96509.63
2023-05-15T15:30:40.098Z,96508.19
2023-05-15T15:33:06.717Z,96510.41
2023-05-15T15:35:33.246Z,96507.91
2023-05-15T15:37:59.689Z,96516.50
2023-05-15T15:40:26.579Z,96519.19
2023-05-15T15:42:54.182Z,96519.34
2023-05-15T15:45:20.809Z,96527.81
2023-05-15T15:47:47.381Z,96518.56
2023-05-15T15:50:13.854Z,96532.97
2023-05-15T15:52:40.419Z,96535.16
2023-05-15T15:55:07.611Z,96537.75
2023-05-15T15:57:34.020Z,96538.56
2023-05-15T16:00:00.800Z,96532.03
2023-05-15T16:02:28.728Z,96533.81
2023-05-15T16:04:55.495Z,96531.78
2023-05-15T16:07:24.373Z,96527.31
2023-05-15T16:10:00.260Z,96535.16
2023-05-15T16:12:37.287Z,96544.00
2023-05-15T16:15:17.335Z,96543.69
2023-05-15T16:17:51.277Z,96543.22
2023-05-15T16:20:17.919Z,96543.94
2023-05-15T16:22:44.609Z,96542.72
2023-05-15T16:25:11.259Z,96550.19
2023-05-15T16:27:37.685Z,96561.50
2023-05-15T16:30:04.607Z,96567.88
2023-05-15T16:32:31.870Z,96561.75
2023-05-15T16:34:58.271Z,96562.97
2023-05-15T16:37:24.738Z,96567.25
2023-05-15T16:39:51.373Z,96573.91
2023-05-15T16:42:17.952Z,96571.94
2023-05-15T16:44:44.567Z,96577.78
2023-05-15T16:47:11.003Z,96579.91
2023-05-15T16:49:37.451Z,96581.22
2023-05-15T16:52:04.026Z,96569.00
2023-05-15T16:54:31.257Z,96576.94
2023-05-15T16:56:57.896Z,96581.47
2023-05-15T16:59:24.368Z,96581.75
2023-05-15T17:01:51.066Z,96588.34
2023-05-15T17:04:17.688Z,96585.19
2023-05-15T17:06:44.501Z,96586.78
2023-05-15T17:09:10.893Z,96585.19
2023-05-15T17:11:37.432Z,96586.78
2023-05-15T17:14:03.820Z,96584.66
2023-05-15T17:16:30.315Z,96588.91
2023-05-15T17:18:56.837Z,96590.50
2023-05-15T17:21:23.565Z,96592.34
2023-05-15T17:23:53.110Z,96589.69
2023-05-15T17:26:19.595Z,96585.19
2023-05-15T17:28:46.247Z,96587.28
2023-05-15T17:31:12.744Z,96585.63
2023-05-15T17:33:39.152Z,96587.50
2023-05-15T17:36:05.933Z,96587.25
2023-05-15T17:38:32.472Z,96603.09
2023-05-15T17:40:59.091Z,96586.91
2023-05-15T17:43:25.558Z,96591.94
2023-05-15T17:45:51.967Z,96591.69
2023-05-15T17:48:18.441Z,96598.84
2023-05-15T17:50:45.222Z,96599.91
2023-05-15T17:53:11.711Z,96595.69
2023-05-15T17:55:38.188Z,96605.25
2023-05-15T17:58:04.668Z,96603.41
2023-05-15T18:00:31.255Z,96593.59
2023-05-15T18:02:57.809Z,96599.47
2023-05-15T18:05:24.692Z,96594.44
2023-05-15T18:07:51.444Z,96603.22
2023-05-15T18:10:17.870Z,96610.13
2023-05-15T18:12:44.407Z,96606.94
2023-05-15T18:15:11.146Z,96614.91
2023-05-15T18:17:37.632Z,96613.81
2023-05-15T18:20:05.707Z,96614.91
2023-05-15T18:22:32.339Z,96615.41
2023-05-15T18:24:58.976Z,96623.63
2023-05-15T18:27:25.693Z,96624.41
2023-05-15T18:29:52.178Z,96629.47
2023-05-15T18:32:19.383Z,96624.16
2023-05-15T18:34:47.056Z,96623.88
2023-05-15T18:37:13.627Z,96631.56
2023-05-15T18:39:40.097Z,96634.44
2023-05-15T18:42:06.863Z,96638.94
2023-05-15T18:44:34.819Z,96641.78
2023-05-15T18:47:02.264Z,96639.69
2023-05-15T18:49:29.615Z,96645.47
2023-05-15T18:51:56.569Z,96643.34
2023-05-15T18:54:23.010Z,96652.59
2023-05-15T18:56:49.767Z,96646.50
2023-05-15T18:59:16.321Z,96649.13
2023-05-15T19:01:42.834Z,96651.22
2023-05-15T19:04:09.517Z,96650.72
2023-05-15T19:06:36.036Z,96655.22
2023-05-15T19:09:03.148Z,96660.19
2023-05-15T19:11:29.637Z,96654.38
2023-05-15T19:13:56.155Z,96656.22
2023-05-15T19:16:26.973Z,96659.09
2023-05-15T19:18:53.497Z,96665.97
2023-05-15T19:21:21.099Z,96670.75
2023-05-15T19:23:50.817Z,96676.00
2023-05-15T19:26:17.215Z,96672.31
2023-05-15T19:28:44.069Z,96682.88
2023-05-15T19:31:20.371Z,96692.09
2023-05-15T19:33:54.297Z,96682.09
2023-05-15T19:36:20.884Z,96683.16
2023-05-15T19:38:47.859Z,96688.16
2023-05-15T19:41:14.711Z,96697.72
2023-05-15T19:43:41.302Z,96692.97
2023-05-15T19:46:07.783Z,96689.84
2023-05-15T19:48:34.387Z,96700.97
2023-05-15T19:51:00.853Z,96694.56
2023-05-15T19:53:27.393Z,96693.50
2023-05-15T19:55:54.039Z,96695.88
2023-05-15T19:58:22.341Z,96703.28
2023-05-15T20:00:49.860Z,96699.88
2023-05-15T20:03:16.379Z,96697.78
2023-05-15T20:05:43.188Z,96696.72
2023-05-15T20:08:09.669Z,96685.91
2023-05-15T20:10:36.188Z,96686.13
2023-05-15T20:13:03.093Z,96680.31
2023-05-15T20:15:31.455Z,96682.16
2023-05-15T20:17:57.870Z,96673.97
2023-05-15T20:20:24.619Z,96680.31
2023-05-15T20:22:51.226Z,96682.97
2023-05-15T20:25:17.722Z,96681.66
2023-05-15T20:27:44.132Z,96685.63
2023-05-15T20:30:11.429Z,96684.59
2023-05-15T20:32:38.008Z,96692.03
2023-05-15T20:35:05.346Z,96687.78
2023-05-15T20:37:31.945Z,96684.09
2023-05-15T20:39:58.354Z,96683.00
2023-05-15T20:42:27.925Z,96684.59
2023-05-15T20:44:54.397Z,96692.28
2023-05-15T20:47:20.863Z,96684.91
2023-05-15T20:49:47.245Z,96681.44
2023-05-15T20:52:13.740Z,96679.84
2023-05-15T20:54:40.379Z,96684.09
2023-05-15T20:57:06.986Z,96681.72
2023-05-15T20:59:33.933Z,96679.38
2023-05-15T21:02:00.714Z,96683.56
2023-05-15T21:04:27.415Z,96684.09
2023-05-15T21:06:54.790Z,96680.91
2023-05-15T21:09:21.229Z,96683.56
2023-05-15T21:11:47.661Z,96685.16
2023-05-15T21:14:14.498Z,96681.47
2023-05-15T21:16:41.252Z,96688.88
2023-05-15T21:19:07.862Z,96681.44
2023-05-15T21:21:35.303Z,96689.91
2023-05-15T21:24:05.118Z,96681.44
2023-05-15T21:26:31.574Z,96681.44
2023-05-15T21:28:59.114Z,96683.53
2023-05-15T21:31:26.482Z,96681.66
2023-05-15T21:33:53.201Z,96678.78
2023-05-15T21:36:20.798Z,96681.94
2023-05-15T21:38:47.213Z,96681.13
2023-05-15T21:41:13.659Z,96679.28
2023-05-15T21:43:40.116Z,96675.00
2023-05-15T21:46:06.689Z,96686.13
2023-05-15T21:48:33.305Z,96691.41
2023-05-15T21:50:59.880Z,96690.31
2023-05-15T21:53:26.366Z,96694.03
2023-05-15T21:55:59.906Z,96693.47
2023-05-15T21:58:26.345Z,96697.19
2023-05-15T22:00:52.958Z,96698.25
2023-05-15T22:03:20.225Z,96703.00
2023-05-15T22:05:48.254Z,96702.50
2023-05-15T22:08:15.153Z,96698.28
2023-05-15T22:10:41.893Z,96703.06
2023-05-15T22:13:09.072Z,96700.69
2023-05-15T22:15:36.179Z,96695.72
2023-05-15T22:18:03.686Z,96698.88
2023-05-15T22:20:30.245Z,96702.50
2023-05-15T22:22:56.767Z,96715.22
2023-05-15T22:25:23.261Z,96709.81
2023-05-15T22:27:49.701Z,96709.59
2023-05-15T22:30:16.290Z,96706.19
2023-05-15T22:32:42.730Z,96704.66
2023-05-15T22:35:09.739Z,96705.16
2023-05-15T22:37:36.710Z,96704.13
2023-05-15T22:40:04.149Z,96704.34
2023-05-15T22:42:30.654Z,96709.59
2023-05-15T22:44:57.757Z,96702.19
2023-05-15T22:47:28.404Z,96706.19
2023-05-15T22:49:55.134Z,96700.88
2023-05-15T22:52:21.676Z,96709.38
2023-05-15T22:54:48.117Z,96696.69
2023-05-15T22:57:14.562Z,96703.56
2023-05-15T22:59:41.365Z,96699.31
2023-05-15T23:02:07.832Z,96691.69
2023-05-15T23:04:34.573Z,96693.56
2023-05-15T23:07:01.017Z,96694.56
2023-05-15T23:09:27.424Z,96696.69
2023-05-15T23:11:54.104Z,96690.34
2023-05-15T23:14:21.729Z,96692.97
2023-05-15T23:16:49.743Z,96688.47
2023-05-15T23:19:16.576Z,96686.63
2023-05-15T23:21:43.163Z,96678.41
2023-05-15T23:24:09.580Z,96684.53
2023-05-15T23:26:35.990Z,96673.41
2023-05-15T23:29:02.558Z,96672.38
2023-05-15T23:31:29.163Z,96667.09
2023-05-15T23:33:55.574Z,96674.22
2023-05-15T23:36:22.188Z,96671.59
2023-05-15T23:38:48.591Z,96674.50
2023-05-15T23:41:15.272Z,96684.53
2023-05-15T23:43:41.748Z,96682.94
2023-05-15T23:46:08.369Z,96690.84
2023-05-15T23:48:34.806Z,96685.56
2023-05-15T23:51:01.284Z,96682.34
2023-05-15T23:53:27.981Z,96684.47
2023-05-15T23:55:54.359Z,96680.75
2023-05-15T23:58:21.487Z,96677.88
